createdAt,value
2022-10-29T00:01:05.750Z,5.80
2022-10-29T00:03:33.719Z,6.27
2022-10-29T00:06:03.041Z,4.80
2022-10-29T00:08:33.007Z,4.80
2022-10-29T00:11:08.068Z,6.10
2022-10-29T00:13:37.043Z,4.00
2022-10-29T00:16:09.732Z,5.13
2022-10-29T00:18:37.700Z,5.27
2022-10-29T00:21:07.788Z,5.33
2022-10-29T00:23:38.037Z,5.57
2022-10-29T00:26:07.745Z,5.23
2022-10-29T00:28:36.252Z,5.37
2022-10-29T00:31:05.325Z,5.00
2022-10-29T00:33:33.813Z,4.97
2022-10-29T00:36:03.339Z,5.53
2022-10-29T00:38:31.994Z,5.60
2022-10-29T00:41:00.015Z,4.67
2022-10-29T00:43:29.388Z,4.57
2022-10-29T00:46:02.327Z,4.93
2022-10-29T00:48:34.575Z,4.73
2022-10-29T00:51:04.621Z,4.00
2022-10-29T00:53:37.531Z,5.57
2022-10-29T00:56:06.412Z,5.17
2022-10-29T00:58:35.953Z,5.27
2022-10-29T01:01:04.010Z,6.13
2022-10-29T01:03:31.812Z,4.97
2022-10-29T01:06:01.866Z,4.53
2022-10-29T01:08:29.664Z,5.33
2022-10-29T01:11:06.782Z,5.80
2022-10-29T01:13:48.904Z,5.00
2022-10-29T01:16:25.686Z,5.27
2022-10-29T01:19:05.623Z,4.80
2022-10-29T01:21:46.195Z,4.93
2022-10-29T01:24:43.328Z,5.77
2022-10-29T01:27:49.253Z,4.70
2022-10-29T01:30:31.561Z,5.23
2022-10-29T01:33:11.365Z,6.00
2022-10-29T01:35:50.198Z,4.80
2022-10-29T01:38:29.220Z,5.20
2022-10-29T01:41:05.224Z,5.70
2022-10-29T01:43:37.369Z,5.27
2022-10-29T01:46:09.218Z,7.13
2022-10-29T01:48:45.063Z,5.07
2022-10-29T01:51:18.999Z,5.07
2022-10-29T01:53:47.277Z,5.70
2022-10-29T01:56:15.170Z,5.00
2022-10-29T01:58:47.015Z,5.03
2022-10-29T02:01:29.797Z,4.77
2022-10-29T02:04:07.454Z,4.53
2022-10-29T02:06:44.885Z,4.60
2022-10-29T02:09:20.781Z,4.40
2022-10-29T02:11:55.633Z,5.03
2022-10-29T02:14:30.478Z,4.30
2022-10-29T02:17:00.675Z,4.67
2022-10-29T02:19:32.511Z,4.97
2022-10-29T02:22:00.750Z,4.13
2022-10-29T02:24:28.573Z,4.97
2022-10-29T02:26:56.426Z,4.23
2022-10-29T02:29:24.355Z,4.07
2022-10-29T02:31:52.223Z,4.07
2022-10-29T02:34:20.009Z,4.77
2022-10-29T02:36:49.128Z,4.77
2022-10-29T02:39:16.947Z,4.73
2022-10-29T02:41:44.821Z,4.77
2022-10-29T02:44:12.628Z,5.43
2022-10-29T02:46:40.790Z,4.27
2022-10-29T02:49:08.906Z,4.47
2022-10-29T02:51:36.869Z,5.60
2022-10-29T02:54:06.107Z,5.10
2022-10-29T02:56:34.001Z,5.20
2022-10-29T02:59:02.699Z,5.10
2022-10-29T03:01:32.419Z,4.77
2022-10-29T03:04:02.412Z,4.43
2022-10-29T03:06:30.221Z,4.27
2022-10-29T03:08:57.996Z,5.33
2022-10-29T03:11:27.128Z,5.07
2022-10-29T03:13:54.910Z,4.50
2022-10-29T03:16:25.086Z,4.40
2022-10-29T03:18:52.875Z,4.40
2022-10-29T03:21:20.727Z,4.70
2022-10-29T03:23:48.578Z,4.30
2022-10-29T03:26:16.414Z,3.80
2022-10-29T03:31:16.487Z,4.73
2022-10-29T03:33:44.346Z,4.33
2022-10-29T03:36:12.264Z,4.60
2022-10-29T03:38:40.276Z,5.27
2022-10-29T03:41:10.933Z,4.23
2022-10-29T03:43:42.031Z,5.17
2022-10-29T03:46:11.210Z,4.50
2022-10-29T03:48:39.132Z,4.20
2022-10-29T03:51:08.078Z,5.60
2022-10-29T03:53:37.381Z,4.07
2022-10-29T03:56:06.580Z,4.53
2022-10-29T03:58:36.559Z,4.80
2022-10-29T04:01:06.489Z,4.53
2022-10-29T04:03:38.597Z,5.10
2022-10-29T04:06:11.001Z,4.80
2022-10-29T04:08:39.360Z,5.60
2022-10-29T04:11:08.081Z,5.00
2022-10-29T04:13:36.113Z,4.50
2022-10-29T04:16:04.104Z,5.67
2022-10-29T04:18:31.997Z,4.20
2022-10-29T04:29:45.376Z,4.40
2022-10-29T04:32:13.249Z,3.97
2022-10-29T04:34:41.223Z,4.60
2022-10-29T04:37:10.451Z,4.80
2022-10-29T04:39:40.406Z,4.60
2022-10-29T04:42:08.228Z,4.10
2022-10-29T04:44:36.116Z,4.00
2022-10-29T04:47:04.181Z,4.00
2022-10-29T04:49:32.175Z,4.13
2022-10-29T04:52:00.014Z,4.20
2022-10-29T04:54:29.258Z,5.03
2022-10-29T04:56:57.022Z,5.33
2022-10-29T04:59:24.919Z,5.27
2022-10-29T05:01:52.760Z,4.93
2022-10-29T05:04:22.867Z,5.00
2022-10-29T05:06:50.632Z,4.93
2022-10-29T05:09:18.495Z,4.70
2022-10-29T05:11:47.643Z,4.10
2022-10-29T05:14:15.517Z,5.43
2022-10-29T05:16:43.302Z,4.00
2022-10-29T05:19:11.173Z,4.90
2022-10-29T05:21:38.990Z,4.30
2022-10-29T05:24:07.337Z,4.73
2022-10-29T05:26:35.115Z,4.80
2022-10-29T05:29:31.888Z,4.87
2022-10-29T05:31:59.723Z,5.07
2022-10-29T05:34:27.444Z,5.87
2022-10-29T05:36:55.377Z,5.40
2022-10-29T05:39:23.223Z,5.80
2022-10-29T05:41:51.049Z,5.20
2022-10-29T05:44:18.855Z,4.63
2022-10-29T05:46:51.040Z,4.67
2022-10-29T05:49:18.936Z,5.20
2022-10-29T05:51:46.668Z,6.03
2022-10-29T05:54:14.576Z,5.43
2022-10-29T05:56:42.329Z,4.93
2022-10-29T05:59:10.201Z,4.50
2022-10-29T06:01:38.180Z,4.73
2022-10-29T06:04:07.514Z,4.83
2022-10-29T06:06:35.408Z,5.23
2022-10-29T06:09:03.285Z,5.73
2022-10-29T06:11:31.358Z,5.30
2022-10-29T06:13:59.207Z,5.20
2022-10-29T06:16:27.047Z,5.23
2022-10-29T06:18:54.894Z,5.80
2022-10-29T06:21:23.985Z,6.20
2022-10-29T06:23:55.698Z,6.10
2022-10-29T06:26:23.592Z,5.23
2022-10-29T06:28:51.772Z,5.57
2022-10-29T06:31:19.614Z,5.30
2022-10-29T06:33:47.434Z,5.70
2022-10-29T06:36:15.341Z,5.23
2022-10-29T06:38:46.764Z,5.00
2022-10-29T06:41:15.115Z,5.17
2022-10-29T06:43:42.877Z,5.53
2022-10-29T06:46:10.762Z,4.80
2022-10-29T06:48:38.533Z,5.00
2022-10-29T06:51:06.847Z,4.60
2022-10-29T06:53:34.599Z,5.43
2022-10-29T06:56:04.029Z,4.50
2022-10-29T06:58:32.028Z,4.73
2022-10-29T07:01:01.469Z,4.77
2022-10-29T07:03:29.379Z,5.43
2022-10-29T07:05:58.284Z,4.50
2022-10-29T07:08:26.852Z,4.43
2022-10-29T07:10:54.946Z,4.50
2022-10-29T07:13:24.209Z,4.37
2022-10-29T07:15:52.111Z,4.70
2022-10-29T07:18:20.133Z,4.83
2022-10-29T07:20:47.891Z,4.80
2022-10-29T07:23:15.919Z,5.57
2022-10-29T07:25:43.931Z,4.60
2022-10-29T07:28:13.782Z,4.90
2022-10-29T07:30:46.318Z,5.47
2022-10-29T07:33:14.586Z,5.10
2022-10-29T07:35:42.620Z,5.37
2022-10-29T07:38:11.859Z,4.80
2022-10-29T07:40:40.170Z,4.63
2022-10-29T07:43:08.112Z,4.53
2022-10-29T07:45:36.102Z,5.37
2022-10-29T07:48:07.831Z,4.97
2022-10-29T07:50:36.685Z,5.17
2022-10-29T07:53:05.753Z,4.50
2022-10-29T07:55:34.073Z,4.97
2022-10-29T07:58:04.141Z,4.50
2022-10-29T08:00:34.080Z,4.03
2022-10-29T08:03:02.015Z,4.60
2022-10-29T08:05:31.948Z,4.47
2022-10-29T08:08:00.331Z,4.40
2022-10-29T08:10:29.436Z,5.17
2022-10-29T08:12:59.745Z,4.87
2022-10-29T08:15:29.580Z,4.87
2022-10-29T08:17:57.896Z,5.20
2022-10-29T08:20:27.616Z,4.63
2022-10-29T08:22:59.865Z,6.20
2022-10-29T08:25:28.234Z,4.93
2022-10-29T08:28:00.441Z,4.77
2022-10-29T08:30:28.896Z,5.40
2022-10-29T08:32:57.699Z,4.53
2022-10-29T08:35:25.850Z,5.20
2022-10-29T08:37:54.100Z,4.87
2022-10-29T08:40:29.966Z,6.30
2022-10-29T08:43:26.686Z,4.63
2022-10-29T08:45:56.098Z,5.60
2022-10-29T08:48:31.045Z,4.73
2022-10-29T08:51:02.277Z,6.20
2022-10-29T08:53:37.498Z,5.50
2022-10-29T08:56:12.474Z,6.00
2022-10-29T08:58:49.148Z,6.40
2022-10-29T09:01:21.375Z,5.40
2022-10-29T09:03:50.113Z,6.27
2022-10-29T09:06:24.313Z,5.80
2022-10-29T09:09:06.638Z,6.37
2022-10-29T09:11:48.790Z,6.60
2022-10-29T09:14:37.072Z,6.40
2022-10-29T09:17:15.765Z,6.40
2022-10-29T09:20:01.737Z,6.83
2022-10-29T09:22:40.852Z,6.40
2022-10-29T09:25:18.205Z,7.67
2022-10-29T09:28:00.493Z,6.00
2022-10-29T09:30:31.714Z,6.30
2022-10-29T09:33:04.854Z,6.23
2022-10-29T09:35:40.063Z,6.17
2022-10-29T09:38:13.734Z,5.57
2022-10-29T09:40:43.471Z,5.80
2022-10-29T09:43:24.784Z,5.80
2022-10-29T09:45:59.126Z,6.47
2022-10-29T09:48:34.416Z,6.70
2022-10-29T09:51:16.272Z,6.50
2022-10-29T09:53:47.020Z,6.70
2022-10-29T09:56:17.483Z,6.23
2022-10-29T09:58:53.815Z,7.00
2022-10-29T10:01:22.196Z,6.47
2022-10-29T10:03:55.866Z,5.77
2022-10-29T10:06:23.873Z,6.30
2022-10-29T10:09:02.491Z,6.37
2022-10-29T10:11:36.851Z,5.80
2022-10-29T10:14:14.665Z,6.53
2022-10-29T10:16:43.356Z,5.63
2022-10-29T10:19:27.068Z,6.70
2022-10-29T10:22:00.392Z,6.03
2022-10-29T10:24:31.740Z,6.07
2022-10-29T10:26:59.808Z,6.30
2022-10-29T10:29:29.391Z,6.30
2022-10-29T10:32:17.046Z,5.70
2022-10-29T10:34:44.923Z,7.07
2022-10-29T10:37:19.325Z,6.90
2022-10-29T10:39:52.678Z,6.20
2022-10-29T10:42:25.133Z,6.00
2022-10-29T10:44:59.743Z,8.60
2022-10-29T10:47:30.415Z,18.70
2022-10-29T10:50:11.785Z,13.60
2022-10-29T10:52:40.567Z,11.33
2022-10-29T10:55:17.200Z,8.20
2022-10-29T10:57:53.960Z,5.33
2022-10-29T11:00:25.934Z,6.10
2022-10-29T11:02:59.027Z,5.70
2022-10-29T11:05:32.524Z,5.90
2022-10-29T11:08:08.223Z,6.23
2022-10-29T11:10:41.748Z,6.10
2022-10-29T11:13:16.286Z,6.57
2022-10-29T11:15:51.662Z,8.00
2022-10-29T11:18:24.995Z,6.27
2022-10-29T11:21:05.099Z,7.60
2022-10-29T11:23:43.393Z,7.17
2022-10-29T11:26:17.082Z,5.83
2022-10-29T11:28:52.568Z,6.33
2022-10-29T11:31:28.617Z,5.80
2022-10-29T11:34:04.200Z,6.10
2022-10-29T11:36:38.320Z,5.93
2022-10-29T11:39:11.827Z,5.60
2022-10-29T11:41:45.304Z,8.10
2022-10-29T11:44:15.170Z,7.13
2022-10-29T11:46:59.897Z,7.30
2022-10-29T11:49:43.958Z,7.90
2022-10-29T11:52:18.205Z,7.33
2022-10-29T11:55:00.474Z,6.50
2022-10-29T11:57:37.826Z,7.90
2022-10-29T12:00:13.826Z,8.20
2022-10-29T12:03:04.662Z,6.00
2022-10-29T12:05:40.572Z,6.27
2022-10-29T12:08:31.887Z,6.50
2022-10-29T12:11:09.256Z,6.60
2022-10-29T12:13:49.236Z,5.63
2022-10-29T12:16:30.793Z,6.20
2022-10-29T12:19:08.163Z,6.07
2022-10-29T12:21:42.828Z,5.87
2022-10-29T12:24:24.014Z,6.10
2022-10-29T12:26:59.764Z,5.70
2022-10-29T12:29:40.023Z,5.40
2022-10-29T12:32:14.107Z,6.20
2022-10-29T12:34:50.521Z,5.67
2022-10-29T12:37:28.470Z,5.87
2022-10-29T12:40:01.791Z,5.80
2022-10-29T12:42:30.516Z,6.33
2022-10-29T12:45:12.868Z,6.70
2022-10-29T12:47:46.959Z,6.57
2022-10-29T12:50:34.597Z,6.00
2022-10-29T12:53:11.188Z,5.70
2022-10-29T12:55:39.972Z,7.00
2022-10-29T12:58:45.353Z,6.30
2022-10-29T13:02:10.499Z,6.67
2022-10-29T13:04:39.238Z,6.63
2022-10-29T13:07:24.093Z,6.00
2022-10-29T13:10:34.434Z,6.57
2022-10-29T13:13:06.171Z,5.70
2022-10-29T13:15:38.309Z,5.53
2022-10-29T13:18:19.017Z,4.77
2022-10-29T13:20:49.393Z,4.70
2022-10-29T13:23:35.966Z,4.70
2022-10-29T13:26:03.973Z,5.13
2022-10-29T13:28:52.585Z,4.50
2022-10-29T13:31:48.768Z,4.90
2022-10-29T13:34:51.374Z,5.23
2022-10-29T13:38:03.369Z,5.17
2022-10-29T13:41:17.075Z,5.30
2022-10-29T13:43:55.225Z,5.40
2022-10-29T13:46:53.399Z,5.00
2022-10-29T13:49:25.671Z,5.33
2022-10-29T13:51:58.198Z,5.80
2022-10-29T13:54:40.880Z,6.23
2022-10-29T13:57:19.222Z,5.50
2022-10-29T13:59:52.929Z,6.03
2022-10-29T14:02:33.226Z,5.40
2022-10-29T14:05:08.321Z,5.63
2022-10-29T14:07:43.908Z,5.33
2022-10-29T14:10:19.373Z,6.80
2022-10-29T14:12:50.394Z,5.53
2022-10-29T14:15:18.662Z,5.70
2022-10-29T14:17:46.562Z,5.60
2022-10-29T14:20:23.169Z,4.37
2022-10-29T14:22:51.120Z,5.83
2022-10-29T14:25:30.107Z,7.30
2022-10-29T14:28:27.500Z,6.50
2022-10-29T14:31:04.973Z,4.73
2022-10-29T14:33:35.471Z,6.10
2022-10-29T14:36:12.377Z,6.37
2022-10-29T14:38:46.385Z,5.77
2022-10-29T14:41:15.951Z,5.23
2022-10-29T14:43:47.177Z,6.10
2022-10-29T14:46:27.342Z,5.90
2022-10-29T14:49:01.674Z,5.70
2022-10-29T14:51:34.081Z,5.90
2022-10-29T14:54:03.738Z,5.43
2022-10-29T14:56:35.839Z,5.63
2022-10-29T14:59:15.017Z,5.70
2022-10-29T15:01:48.674Z,6.10
2022-10-29T15:04:22.241Z,5.63
2022-10-29T15:06:50.344Z,6.10
2022-10-29T15:09:26.857Z,5.80
2022-10-29T15:12:08.917Z,5.60
2022-10-29T15:14:47.935Z,5.37
2022-10-29T15:17:22.225Z,5.10
2022-10-29T15:19:55.030Z,5.80
2022-10-29T15:22:28.992Z,5.40
2022-10-29T15:25:00.629Z,5.53
2022-10-29T15:27:28.584Z,6.30
2022-10-29T15:29:58.738Z,5.60
2022-10-29T15:32:30.492Z,6.80
2022-10-29T15:35:00.382Z,6.77
2022-10-29T15:37:42.739Z,5.70
2022-10-29T15:40:13.334Z,5.70
2022-10-29T15:42:41.728Z,5.90
2022-10-29T15:45:21.035Z,7.50
2022-10-29T15:47:50.802Z,5.53
2022-10-29T15:50:20.825Z,6.20
2022-10-29T15:52:54.989Z,6.13
2022-10-29T15:55:27.230Z,7.47
2022-10-29T15:58:00.535Z,7.30
2022-10-29T16:00:31.322Z,9.43
2022-10-29T16:03:08.218Z,8.20
2022-10-29T16:05:36.115Z,8.17
2022-10-29T16:08:04.592Z,8.80
2022-10-29T16:10:32.855Z,8.93
2022-10-29T16:13:00.964Z,8.80
2022-10-29T16:15:30.217Z,9.70
2022-10-29T16:18:00.721Z,8.10
2022-10-29T16:20:28.737Z,7.93
2022-10-29T16:22:56.644Z,7.83
2022-10-29T16:25:26.429Z,7.40
2022-10-29T16:27:55.248Z,7.70
2022-10-29T16:30:24.747Z,8.33
2022-10-29T16:32:54.850Z,8.37
2022-10-29T16:35:25.490Z,7.63
2022-10-29T16:37:55.617Z,7.93
2022-10-29T16:40:26.940Z,9.13
2022-10-29T16:42:55.835Z,8.30
2022-10-29T16:45:25.858Z,10.03
2022-10-29T16:47:55.661Z,8.20
2022-10-29T16:50:25.304Z,8.13
2022-10-29T16:52:57.769Z,8.37
2022-10-29T16:55:25.862Z,8.60
2022-10-29T16:57:53.931Z,7.90
2022-10-29T17:00:22.249Z,8.57
2022-10-29T17:02:50.305Z,7.87
2022-10-29T17:05:22.129Z,7.77
2022-10-29T17:07:49.861Z,7.00
2022-10-29T17:10:17.881Z,8.00
2022-10-29T17:12:45.705Z,8.33
2022-10-29T17:15:13.671Z,7.60
2022-10-29T17:17:43.973Z,7.90
2022-10-29T17:20:14.364Z,8.13
2022-10-29T17:22:43.774Z,8.37
2022-10-29T17:25:11.787Z,8.50
2022-10-29T17:27:39.846Z,8.57
2022-10-29T17:30:10.540Z,7.87
2022-10-29T17:32:38.705Z,10.27
2022-10-29T17:35:07.229Z,8.83
2022-10-29T17:37:35.061Z,8.90
2022-10-29T17:40:07.933Z,9.00
2022-10-29T17:42:36.552Z,9.07
2022-10-29T17:45:04.613Z,8.60
2022-10-29T17:47:32.440Z,9.10
2022-10-29T17:50:00.341Z,9.60
2022-10-29T17:52:28.067Z,9.37
2022-10-29T17:54:56.099Z,8.93
2022-10-29T17:57:25.299Z,8.50
2022-10-29T17:59:53.056Z,10.07
2022-10-29T18:02:20.985Z,9.10
2022-10-29T18:04:49.067Z,10.00
2022-10-29T18:07:17.357Z,9.40
2022-10-29T18:09:45.758Z,9.90
2022-10-29T18:12:13.633Z,9.80
2022-10-29T18:14:42.948Z,10.07
2022-10-29T18:17:10.867Z,9.33
2022-10-29T18:19:41.302Z,9.80
2022-10-29T18:22:11.616Z,9.23
2022-10-29T18:24:39.549Z,10.20
2022-10-29T18:27:07.328Z,10.13
2022-10-29T18:29:35.107Z,10.30
2022-10-29T18:32:04.537Z,10.60
2022-10-29T18:34:34.112Z,11.60
2022-10-29T18:37:02.396Z,10.47
2022-10-29T18:39:30.419Z,10.13
2022-10-29T18:41:58.278Z,9.97
2022-10-29T18:44:26.732Z,9.30
2022-10-29T18:46:54.657Z,9.40
2022-10-29T18:49:23.852Z,8.77
2022-10-29T18:51:51.663Z,9.17
2022-10-29T18:54:19.854Z,9.30
2022-10-29T18:56:47.868Z,9.90
2022-10-29T18:59:15.636Z,9.33
2022-10-29T19:01:43.620Z,9.10
2022-10-29T19:04:15.266Z,8.77
2022-10-29T19:06:46.414Z,10.97
2022-10-29T19:09:14.334Z,9.00
2022-10-29T19:11:43.189Z,11.37
2022-10-29T19:14:13.861Z,9.60
2022-10-29T19:16:42.009Z,10.93
2022-10-29T19:19:12.984Z,9.77
2022-10-29T19:21:43.130Z,9.50
2022-10-29T19:24:14.669Z,8.43
2022-10-29T19:26:42.892Z,10.80
2022-10-29T19:29:11.524Z,9.60
2022-10-29T19:31:40.097Z,9.33
2022-10-29T19:34:09.007Z,9.77
2022-10-29T19:36:39.887Z,10.23
2022-10-29T19:39:08.143Z,10.20
2022-10-29T19:41:37.410Z,9.10
2022-10-29T19:44:06.451Z,10.43
2022-10-29T19:46:34.317Z,11.10
2022-10-29T19:49:02.528Z,10.90
2022-10-29T19:51:30.307Z,12.27
2022-10-29T19:54:01.431Z,11.37
2022-10-29T19:56:29.356Z,10.80
2022-10-29T19:58:58.499Z,12.23
2022-10-29T20:01:26.465Z,9.83
2022-10-29T20:03:57.989Z,34.43
2022-10-29T20:06:25.882Z,26.40
2022-10-29T20:08:53.612Z,14.70
2022-10-29T20:11:21.503Z,12.00
2022-10-29T20:13:49.304Z,12.07
2022-10-29T20:16:21.313Z,10.27
2022-10-29T20:18:49.808Z,10.07
2022-10-29T20:21:18.309Z,9.93
2022-10-29T20:23:46.433Z,10.00
2022-10-29T20:26:14.485Z,10.17
2022-10-29T20:28:42.628Z,10.50
2022-10-29T20:31:15.055Z,9.03
2022-10-29T20:33:44.553Z,9.60
2022-10-29T20:36:12.455Z,9.60
2022-10-29T20:38:40.446Z,12.83
2022-10-29T20:41:08.377Z,9.60
2022-10-29T20:43:36.317Z,10.33
2022-10-29T20:46:04.503Z,10.57
2022-10-29T20:48:32.703Z,9.27
2022-10-29T20:51:01.761Z,9.37
2022-10-29T20:53:29.691Z,8.63
2022-10-29T20:55:59.575Z,9.40
2022-10-29T20:58:27.360Z,11.10
2022-10-29T21:00:55.254Z,9.80
2022-10-29T21:03:23.078Z,9.90
2022-10-29T21:05:50.961Z,9.80
2022-10-29T21:08:20.175Z,10.43
2022-10-29T21:10:48.081Z,11.37
2022-10-29T21:13:15.910Z,11.00
2022-10-29T21:15:43.872Z,11.03
2022-10-29T21:18:11.647Z,11.77
2022-10-29T21:20:39.500Z,11.97
2022-10-29T21:23:09.880Z,10.77
2022-10-29T21:25:39.423Z,12.20
2022-10-29T21:28:07.376Z,9.87
2022-10-29T21:30:35.148Z,15.20
2022-10-29T21:33:03.054Z,22.80
2022-10-29T21:35:30.849Z,15.00
2022-10-29T21:37:59.181Z,14.13
2022-10-29T21:40:27.326Z,14.60
2022-10-29T21:42:57.212Z,13.33
2022-10-29T21:45:25.250Z,13.20
2022-10-29T21:47:53.115Z,12.83
2022-10-29T21:50:23.292Z,10.63
2022-10-29T21:52:51.242Z,10.13
2022-10-29T21:55:19.012Z,10.60
2022-10-29T21:57:46.800Z,11.30
2022-10-29T22:00:25.324Z,10.87
2022-10-29T22:02:53.274Z,11.50
2022-10-29T22:05:21.096Z,11.07
2022-10-29T22:07:48.936Z,10.30
2022-10-29T22:10:37.770Z,10.57
2022-10-29T22:13:07.988Z,9.30
2022-10-29T22:15:39.634Z,9.63
2022-10-29T22:18:07.472Z,10.80
2022-10-29T22:20:35.533Z,9.60
2022-10-29T22:23:03.444Z,9.30
2022-10-29T22:25:31.337Z,10.33
2022-10-29T22:27:59.226Z,9.57
2022-10-29T22:30:27.472Z,9.90
2022-10-29T22:32:56.581Z,10.00
2022-10-29T22:35:24.449Z,9.53
2022-10-29T22:37:54.371Z,9.07
2022-10-29T22:40:24.672Z,8.23
2022-10-29T22:42:52.422Z,10.63
2022-10-29T22:45:20.275Z,9.10
2022-10-29T22:47:48.114Z,9.57
2022-10-29T22:50:17.536Z,8.57
2022-10-29T22:52:45.343Z,9.20
2022-10-29T22:55:13.150Z,9.60
2022-10-29T22:57:41.021Z,8.97
2022-10-29T23:00:09.919Z,9.40
2022-10-29T23:02:40.123Z,10.13
2022-10-29T23:05:08.335Z,10.13
2022-10-29T23:07:37.541Z,8.10
2022-10-29T23:10:06.035Z,10.20
2022-10-29T23:12:33.914Z,10.67
2022-10-29T23:15:01.651Z,8.27
2022-10-29T23:17:29.613Z,10.80
2022-10-29T23:19:58.699Z,9.27
2022-10-29T23:22:27.749Z,9.90
2022-10-29T23:24:57.075Z,9.27
2022-10-29T23:27:25.028Z,9.10
2022-10-29T23:29:52.875Z,8.73
2022-10-29T23:32:20.872Z,8.63
2022-10-29T23:34:49.885Z,9.73
2022-10-29T23:37:17.646Z,9.10
2022-10-29T23:39:45.538Z,8.73
2022-10-29T23:42:14.656Z,9.00
2022-10-29T23:44:45.016Z,8.03
2022-10-29T23:47:12.821Z,9.30
2022-10-29T23:49:40.629Z,9.50
2022-10-29T23:52:08.527Z,9.33
2022-10-29T23:54:36.277Z,8.83
2022-10-29T23:57:04.244Z,8.73
2022-10-29T23:59:33.359Z,8.37
